createdAt,value
2019-01-17T00:00:58.752Z,91.23
2019-01-17T00:03:44.641Z,91.01
2019-01-17T00:06:32.143Z,91.50
2019-01-17T00:09:37.341Z,90.82
2019-01-17T00:12:24.493Z,90.64
2019-01-17T00:15:14.357Z,91.01
2019-01-17T00:17:56.067Z,90.91
2019-01-17T00:21:01.122Z,90.97
2019-01-17T00:23:47.400Z,91.61
2019-01-17T00:26:41.360Z,91.44
2019-01-17T00:29:31.520Z,91.33
2019-01-17T00:32:27.702Z,91.55
2019-01-17T00:35:05.836Z,91.88
2019-01-17T00:37:52.391Z,91.87
2019-01-17T00:40:45.661Z,92.09
2019-01-17T00:43:41.638Z,92.25
2019-01-17T00:46:28.988Z,92.10
2019-01-17T00:49:14.856Z,92.18
2019-01-17T00:52:10.887Z,92.45
2019-01-17T00:54:57.969Z,92.46
2019-01-17T00:57:47.900Z,92.20
2019-01-17T01:00:25.906Z,92.59
2019-01-17T01:03:19.523Z,92.56
2019-01-17T01:06:24.606Z,92.68
2019-01-17T01:09:11.809Z,92.25
2019-01-17T01:11:57.182Z,92.19
2019-01-17T01:14:44.293Z,92.52
2019-01-17T01:17:40.465Z,92.54
2019-01-17T01:20:29.520Z,92.42
2019-01-17T01:23:16.819Z,92.33
2019-01-17T01:26:21.992Z,91.98
2019-01-17T01:29:21.245Z,91.91
2019-01-17T01:32:04.209Z,91.77
2019-01-17T01:35:03.287Z,91.66
2019-01-17T01:37:53.038Z,91.36
2019-01-17T01:40:40.084Z,91.58
2019-01-17T01:43:28.711Z,91.98
2019-01-17T01:46:24.810Z,92.27
2019-01-17T01:49:14.582Z,92.07
2019-01-17T01:52:02.039Z,92.47
2019-01-17T01:54:29.612Z,92.33
2019-01-17T01:56:57.369Z,92.51
2019-01-17T01:59:25.924Z,92.49
2019-01-17T02:01:53.585Z,92.30
2019-01-17T02:04:21.204Z,92.18
2019-01-17T02:06:49.056Z,92.43
2019-01-17T02:09:16.599Z,92.51
2019-01-17T02:11:44.244Z,92.76
2019-01-17T02:14:11.891Z,92.65
2019-01-17T02:16:39.534Z,92.31
2019-01-17T02:19:07.213Z,92.24
2019-01-17T02:21:34.900Z,92.31
2019-01-17T02:24:02.469Z,91.95
2019-01-17T02:26:31.117Z,92.32
2019-01-17T02:28:58.656Z,92.27
2019-01-17T02:31:26.301Z,92.23
2019-01-17T02:33:53.830Z,92.26
2019-01-17T02:36:21.462Z,92.41
2019-01-17T02:38:49.013Z,91.78
2019-01-17T02:41:16.722Z,91.72
2019-01-17T02:43:44.381Z,91.83
2019-01-17T02:46:11.966Z,91.46
2019-01-17T02:48:39.489Z,91.80
2019-01-17T02:51:07.186Z,91.88
2019-01-17T02:53:34.757Z,92.22
2019-01-17T02:56:02.388Z,92.30
2019-01-17T02:58:30.036Z,91.78
2019-01-17T03:00:57.631Z,91.53
2019-01-17T03:03:25.187Z,91.29
2019-01-17T03:05:53.250Z,91.35
2019-01-17T03:08:20.938Z,91.29
2019-01-17T03:10:48.502Z,91.29
2019-01-17T03:13:16.091Z,91.12
2019-01-17T03:15:43.723Z,91.00
2019-01-17T03:18:11.323Z,91.06
2019-01-17T03:20:38.948Z,90.95
2019-01-17T03:23:06.540Z,90.61
2019-01-17T03:25:36.055Z,90.75
2019-01-17T03:28:03.643Z,90.36
2019-01-17T03:30:31.905Z,90.14
2019-01-17T03:32:59.514Z,90.07
2019-01-17T03:35:27.093Z,89.92
2019-01-17T03:37:54.715Z,89.76
2019-01-17T03:40:22.337Z,89.99
2019-01-17T03:42:49.888Z,89.93
2019-01-17T03:45:17.599Z,90.09
2019-01-17T03:47:46.016Z,89.92
2019-01-17T03:50:14.705Z,89.92
2019-01-17T03:52:42.624Z,89.73
2019-01-17T03:55:15.792Z,89.56
2019-01-17T03:57:43.382Z,89.63
2019-01-17T04:00:16.514Z,89.86
2019-01-17T04:02:44.083Z,89.90
2019-01-17T04:05:11.714Z,89.75
2019-01-17T04:07:39.423Z,89.85
2019-01-17T04:10:08.751Z,89.60
2019-01-17T04:12:36.327Z,89.71
2019-01-17T04:15:04.865Z,89.33
2019-01-17T04:17:32.522Z,89.39
2019-01-17T04:20:00.226Z,89.60
2019-01-17T04:22:27.957Z,89.66
2019-01-17T04:24:57.438Z,89.41
2019-01-17T04:27:25.299Z,89.62
2019-01-17T04:29:53.042Z,89.44
2019-01-17T04:32:20.827Z,89.62
2019-01-17T04:34:48.553Z,89.83
2019-01-17T04:37:16.218Z,90.09
2019-01-17T04:39:43.914Z,90.15
2019-01-17T04:42:11.620Z,90.26
2019-01-17T04:44:39.321Z,89.84
2019-01-17T04:47:07.038Z,90.17
2019-01-17T04:49:34.743Z,90.03
2019-01-17T04:52:02.416Z,90.13
2019-01-17T04:54:30.091Z,90.49
2019-01-17T04:56:57.736Z,90.20
2019-01-17T04:59:25.400Z,90.33
2019-01-17T05:01:53.112Z,90.44
2019-01-17T05:04:20.791Z,90.50
2019-01-17T05:06:48.550Z,90.62
2019-01-17T05:09:16.204Z,90.91
2019-01-17T05:11:43.841Z,90.46
2019-01-17T05:14:11.566Z,90.18
2019-01-17T05:16:39.231Z,90.06
2019-01-17T05:19:06.853Z,90.17
2019-01-17T05:21:34.581Z,89.87
2019-01-17T05:24:02.951Z,90.02
2019-01-17T05:26:30.635Z,90.18
2019-01-17T05:28:58.347Z,90.36
2019-01-17T05:31:25.963Z,90.50
2019-01-17T05:33:53.477Z,90.40
2019-01-17T05:36:21.141Z,90.36
2019-01-17T05:38:48.679Z,90.22
2019-01-17T05:41:16.310Z,90.32
2019-01-17T05:43:43.952Z,90.41
2019-01-17T05:46:11.723Z,90.28
2019-01-17T05:48:39.317Z,90.16
2019-01-17T05:51:06.972Z,90.41
2019-01-17T05:53:34.524Z,90.18
2019-01-17T05:56:02.194Z,90.40
2019-01-17T05:58:29.756Z,90.52
2019-01-17T06:00:57.530Z,90.69
2019-01-17T06:03:25.492Z,90.47
2019-01-17T06:05:53.140Z,90.68
2019-01-17T06:08:20.704Z,90.87
2019-01-17T06:10:48.253Z,90.83
2019-01-17T06:13:15.904Z,90.74
2019-01-17T06:15:44.009Z,90.46
2019-01-17T06:18:11.658Z,90.72
2019-01-17T06:20:39.530Z,90.96
2019-01-17T06:23:07.232Z,91.27
2019-01-17T06:25:34.868Z,91.16
2019-01-17T06:28:02.440Z,90.98
2019-01-17T06:30:30.138Z,90.69
2019-01-17T06:32:57.689Z,90.59
2019-01-17T06:35:25.361Z,90.52
2019-01-17T06:37:53.014Z,90.75
2019-01-17T06:40:23.489Z,90.51
2019-01-17T06:42:51.095Z,90.47
2019-01-17T06:45:18.767Z,90.17
2019-01-17T06:47:46.347Z,90.32
2019-01-17T06:50:14.018Z,90.22
2019-01-17T06:52:41.600Z,90.36
2019-01-17T06:55:09.427Z,90.60
2019-01-17T06:57:37.028Z,90.35
2019-01-17T07:00:05.716Z,90.42
2019-01-17T07:02:33.305Z,90.20
2019-01-17T07:05:01.119Z,90.06
2019-01-17T07:07:28.750Z,90.11
2019-01-17T07:09:56.409Z,90.06
2019-01-17T07:12:24.052Z,90.11
2019-01-17T07:14:51.758Z,90.25
2019-01-17T07:17:19.337Z,90.71
2019-01-17T07:19:47.063Z,90.71
2019-01-17T07:22:14.686Z,90.65
2019-01-17T07:24:42.388Z,90.34
2019-01-17T07:27:10.099Z,90.09
2019-01-17T07:29:37.874Z,89.93
2019-01-17T07:32:05.660Z,89.97
2019-01-17T07:34:33.495Z,89.74
2019-01-17T07:37:01.143Z,89.58
2019-01-17T07:39:28.826Z,89.69
2019-01-17T07:41:56.518Z,89.19
2019-01-17T07:44:24.218Z,88.93
2019-01-17T07:46:51.874Z,89.29
2019-01-17T07:49:19.551Z,88.83
2019-01-17T07:51:47.265Z,88.52
2019-01-17T07:54:14.990Z,88.58
2019-01-17T07:56:42.702Z,87.96
2019-01-17T07:59:10.466Z,87.75
2019-01-17T08:01:38.259Z,87.28
2019-01-17T08:04:05.914Z,87.66
2019-01-17T08:06:33.662Z,87.20
2019-01-17T08:09:01.464Z,86.93
2019-01-17T08:11:29.189Z,86.86
2019-01-17T08:13:56.885Z,85.88
2019-01-17T08:16:24.531Z,84.88
2019-01-17T08:18:52.612Z,84.38
2019-01-17T08:21:20.224Z,83.23
2019-01-17T08:23:48.956Z,82.05
2019-01-17T08:26:16.613Z,81.67
2019-01-17T08:28:44.202Z,80.65
2019-01-17T08:31:11.881Z,79.96
2019-01-17T08:33:39.466Z,77.90
2019-01-17T08:36:07.154Z,76.57
2019-01-17T08:38:34.721Z,75.92
2019-01-17T08:41:02.392Z,74.85
2019-01-17T08:43:29.929Z,72.57
2019-01-17T08:45:57.641Z,70.44
2019-01-17T08:48:25.188Z,69.62
2019-01-17T08:50:52.801Z,69.79
2019-01-17T08:53:20.375Z,69.46
2019-01-17T08:55:48.108Z,68.89
2019-01-17T08:58:16.182Z,67.94
2019-01-17T09:00:43.851Z,68.01
2019-01-17T09:03:12.629Z,66.65
2019-01-17T09:05:40.556Z,66.18
2019-01-17T09:08:08.162Z,64.90
2019-01-17T09:10:35.973Z,63.93
2019-01-17T09:13:03.801Z,62.83
2019-01-17T09:15:33.587Z,61.35
2019-01-17T09:18:01.194Z,61.22
2019-01-17T09:20:28.926Z,61.25
2019-01-17T09:22:56.526Z,62.08
2019-01-17T09:25:24.231Z,62.87
2019-01-17T09:27:51.922Z,63.36
2019-01-17T09:30:19.650Z,63.66
2019-01-17T09:32:47.452Z,63.48
2019-01-17T09:35:15.564Z,63.32
2019-01-17T09:37:44.324Z,63.73
2019-01-17T09:40:16.882Z,64.26
2019-01-17T09:42:44.674Z,64.87
2019-01-17T09:45:12.992Z,65.14
2019-01-17T09:47:40.669Z,64.70
2019-01-17T09:50:14.951Z,62.76
2019-01-17T09:52:44.249Z,61.48
2019-01-17T09:55:15.684Z,58.92
2019-01-17T09:57:44.410Z,59.57
2019-01-17T10:00:18.112Z,57.80
2019-01-17T10:02:45.839Z,55.64
2019-01-17T10:05:13.615Z,56.72
2019-01-17T10:07:41.505Z,57.10
2019-01-17T10:10:11.960Z,57.42
2019-01-17T10:12:39.550Z,56.86
2019-01-17T10:15:11.803Z,55.05
2019-01-17T10:18:17.455Z,54.40
2019-01-17T10:21:42.088Z,53.24
2019-01-17T10:24:48.012Z,54.02
2019-01-17T10:27:45.227Z,52.48
2019-01-17T10:30:27.883Z,54.38
2019-01-17T10:33:27.161Z,52.87
2019-01-17T10:36:44.300Z,53.07
2019-01-17T10:39:55.326Z,52.61
2019-01-17T10:42:56.078Z,53.42
2019-01-17T10:45:54.158Z,52.90
2019-01-17T10:49:00.190Z,51.39
2019-01-17T10:51:41.325Z,50.58
2019-01-17T10:54:53.415Z,50.37
2019-01-17T10:57:33.049Z,50.19
2019-01-17T11:00:36.144Z,49.68
2019-01-17T11:03:25.397Z,48.98
2019-01-17T11:06:15.383Z,48.33
2019-01-17T11:09:15.120Z,47.51
2019-01-17T11:12:20.174Z,47.52
2019-01-17T11:15:26.091Z,48.47
2019-01-17T11:18:47.135Z,47.47
2019-01-17T11:21:58.128Z,47.63
2019-01-17T11:25:02.979Z,46.80
2019-01-17T11:28:11.631Z,46.85
2019-01-17T11:31:17.049Z,46.04
2019-01-17T11:34:08.776Z,46.56
2019-01-17T11:37:33.075Z,46.69
2019-01-17T11:40:19.524Z,46.20
2019-01-17T11:43:36.721Z,45.45
2019-01-17T11:46:41.639Z,45.09
2019-01-17T11:49:37.102Z,46.55
2019-01-17T11:52:55.761Z,46.66
2019-01-17T11:56:03.434Z,45.81
2019-01-17T11:59:33.974Z,46.40
2019-01-17T12:02:58.674Z,47.06
2019-01-17T12:05:26.426Z,47.05
2019-01-17T12:07:54.256Z,47.08
2019-01-17T12:10:21.924Z,46.29
2019-01-17T12:12:50.005Z,45.65
2019-01-17T12:15:17.793Z,45.92
2019-01-17T12:17:45.505Z,46.21
2019-01-17T12:20:13.269Z,46.73
2019-01-17T12:22:40.970Z,46.55
2019-01-17T12:25:08.718Z,45.61
2019-01-17T12:27:42.358Z,45.37
2019-01-17T12:30:10.143Z,44.47
2019-01-17T12:32:37.693Z,45.29
2019-01-17T12:35:06.305Z,44.97
2019-01-17T12:37:35.790Z,45.37
2019-01-17T12:40:04.480Z,45.01
2019-01-17T12:42:32.111Z,46.18
2019-01-17T12:44:59.761Z,45.55
2019-01-17T12:47:30.291Z,44.40
2019-01-17T12:49:57.924Z,44.52
2019-01-17T12:52:25.562Z,44.74
2019-01-17T12:54:53.370Z,44.37
2019-01-17T12:57:20.943Z,44.34
2019-01-17T12:59:48.643Z,45.91
2019-01-17T13:02:16.243Z,45.24
2019-01-17T13:04:43.958Z,44.60
2019-01-17T13:07:11.587Z,44.25
2019-01-17T13:09:39.243Z,45.07
2019-01-17T13:12:06.823Z,44.95
2019-01-17T13:14:36.355Z,45.12
2019-01-17T13:17:04.040Z,46.44
2019-01-17T13:19:31.705Z,46.42
2019-01-17T13:21:59.515Z,46.76
2019-01-17T13:24:27.188Z,47.49
2019-01-17T13:27:00.578Z,47.01
2019-01-17T13:29:24.296Z,47.26
2019-01-17T13:31:52.033Z,46.14
2019-01-17T13:34:19.849Z,45.99
2019-01-17T13:36:47.517Z,45.63
2019-01-17T13:39:15.089Z,45.60
2019-01-17T13:41:42.774Z,46.56
2019-01-17T13:44:10.407Z,46.04
2019-01-17T13:46:38.106Z,45.61
2019-01-17T13:49:05.738Z,47.15
2019-01-17T13:51:33.407Z,48.02
2019-01-17T13:54:00.986Z,48.44
2019-01-17T13:56:28.627Z,48.14
2019-01-17T13:58:56.245Z,47.83
2019-01-17T14:01:23.913Z,46.94
2019-01-17T14:03:51.472Z,47.05
2019-01-17T14:06:19.175Z,46.79
2019-01-17T14:08:46.733Z,47.17
2019-01-17T14:11:14.382Z,47.55
2019-01-17T14:13:41.939Z,47.64
2019-01-17T14:16:09.669Z,48.70
2019-01-17T14:18:37.264Z,50.25
2019-01-17T14:21:04.902Z,50.85
2019-01-17T14:23:32.518Z,50.46
2019-01-17T14:26:00.239Z,50.33
2019-01-17T14:28:27.956Z,50.76
2019-01-17T14:30:55.800Z,51.65
2019-01-17T14:33:23.546Z,51.58
2019-01-17T14:35:51.178Z,51.79
2019-01-17T14:38:18.862Z,51.13
2019-01-17T14:40:46.495Z,52.15
2019-01-17T14:43:14.111Z,52.51
2019-01-17T14:45:41.655Z,52.45
2019-01-17T14:48:09.379Z,52.38
2019-01-17T14:50:40.008Z,53.89
2019-01-17T14:53:07.848Z,53.72
2019-01-17T14:55:35.753Z,54.43
2019-01-17T14:58:03.624Z,56.50
2019-01-17T15:00:32.522Z,56.74
2019-01-17T15:03:00.204Z,56.33
2019-01-17T15:05:27.887Z,56.06
2019-01-17T15:07:55.501Z,57.06
2019-01-17T15:10:34.929Z,57.41
2019-01-17T15:13:02.586Z,57.28
2019-01-17T15:15:30.234Z,57.37
2019-01-17T15:17:57.906Z,57.99
2019-01-17T15:20:25.667Z,58.60
2019-01-17T15:22:53.374Z,58.79
2019-01-17T15:25:21.195Z,59.16
2019-01-17T15:27:51.948Z,59.87
2019-01-17T15:30:21.778Z,60.34
2019-01-17T15:32:49.912Z,60.66
2019-01-17T15:35:17.633Z,61.94
2019-01-17T15:37:45.349Z,61.86
2019-01-17T15:40:16.009Z,62.08
2019-01-17T15:42:45.440Z,62.60
2019-01-17T15:45:13.264Z,63.02
2019-01-17T15:47:40.929Z,63.31
2019-01-17T15:50:11.850Z,64.04
2019-01-17T15:52:39.535Z,64.20
2019-01-17T15:55:11.719Z,63.99
2019-01-17T15:57:42.706Z,64.22
2019-01-17T16:00:19.884Z,64.18
2019-01-17T16:02:48.448Z,64.20
2019-01-17T16:05:16.550Z,64.43
2019-01-17T16:07:44.405Z,64.56
2019-01-17T16:10:13.678Z,64.54
2019-01-17T16:12:41.750Z,65.07
2019-01-17T16:15:15.150Z,64.92
2019-01-17T16:17:43.691Z,65.81
2019-01-17T16:20:12.577Z,66.29
2019-01-17T16:22:40.615Z,66.70
2019-01-17T16:25:11.451Z,67.90
2019-01-17T16:27:41.767Z,67.86
2019-01-17T16:30:15.795Z,68.87
2019-01-17T16:32:43.924Z,68.77
2019-01-17T16:35:17.943Z,68.75
2019-01-17T16:37:45.917Z,69.04
2019-01-17T16:40:17.057Z,69.53
2019-01-17T16:42:44.930Z,69.86
2019-01-17T16:45:14.385Z,70.35
2019-01-17T16:47:42.623Z,70.94
2019-01-17T16:50:13.618Z,71.35
2019-01-17T16:52:41.801Z,71.13
2019-01-17T16:55:10.263Z,70.79
2019-01-17T16:57:38.096Z,70.69
2019-01-17T17:00:14.402Z,72.08
2019-01-17T17:02:42.914Z,72.69
2019-01-17T17:05:10.989Z,72.29
2019-01-17T17:07:39.392Z,72.85
2019-01-17T17:10:08.423Z,73.62
2019-01-17T17:12:36.120Z,73.79
2019-01-17T17:15:05.177Z,74.86
2019-01-17T17:17:33.337Z,73.86
2019-01-17T17:20:01.315Z,74.78
2019-01-17T17:22:29.568Z,74.23
2019-01-17T17:24:57.486Z,75.51
2019-01-17T17:27:25.845Z,75.43
2019-01-17T17:29:57.052Z,75.75
2019-01-17T17:32:25.063Z,75.68
2019-01-17T17:34:53.721Z,76.44
2019-01-17T17:37:21.886Z,76.52
2019-01-17T17:39:49.956Z,76.57
2019-01-17T17:42:17.760Z,77.12
2019-01-17T17:44:45.806Z,77.59
2019-01-17T17:47:13.750Z,77.29
2019-01-17T17:49:41.729Z,77.12
2019-01-17T17:52:09.546Z,77.33
2019-01-17T17:54:40.059Z,77.46
2019-01-17T17:57:08.099Z,77.22
2019-01-17T17:59:36.136Z,77.19
2019-01-17T18:02:20.800Z,76.84
2019-01-17T18:05:00.448Z,76.66
2019-01-17T18:07:36.806Z,76.61
2019-01-17T18:10:12.060Z,76.57
2019-01-17T18:12:43.081Z,76.48
2019-01-17T18:15:15.120Z,76.58
2019-01-17T18:18:16.324Z,76.56
2019-01-17T18:20:48.276Z,76.68
2019-01-17T18:23:21.475Z,76.33
2019-01-17T18:26:48.692Z,76.29
2019-01-17T18:29:22.861Z,76.57
2019-01-17T18:32:01.327Z,76.46
2019-01-17T18:34:31.294Z,77.28
2019-01-17T18:37:19.659Z,77.12
2019-01-17T18:39:47.499Z,76.56
2019-01-17T18:42:15.667Z,76.33
2019-01-17T18:44:54.702Z,75.93
2019-01-17T18:47:26.665Z,76.90
2019-01-17T18:49:54.662Z,76.67
2019-01-17T18:52:22.859Z,76.66
2019-01-17T18:54:50.744Z,77.07
2019-01-17T18:57:19.231Z,76.90
2019-01-17T18:59:47.127Z,77.13
2019-01-17T19:02:15.106Z,76.86
2019-01-17T19:04:43.995Z,76.57
2019-01-17T19:07:11.955Z,76.27
2019-01-17T19:09:39.949Z,76.25
2019-01-17T19:12:08.075Z,76.14
2019-01-17T19:14:35.923Z,76.61
2019-01-17T19:17:04.600Z,76.40
2019-01-17T19:19:32.840Z,77.25
2019-01-17T19:22:00.781Z,76.86
2019-01-17T19:24:28.490Z,76.73
2019-01-17T19:26:56.279Z,76.21
2019-01-17T19:29:25.769Z,76.28
2019-01-17T19:31:53.677Z,76.55
2019-01-17T19:34:21.585Z,76.24
2019-01-17T19:36:49.607Z,76.35
2019-01-17T19:39:17.336Z,76.39
2019-01-17T19:41:45.277Z,76.20
2019-01-17T19:44:13.090Z,76.10
2019-01-17T19:46:41.628Z,75.89
2019-01-17T19:49:09.456Z,75.68
2019-01-17T19:51:37.583Z,75.96
2019-01-17T19:54:05.606Z,75.91
2019-01-17T19:56:35.199Z,76.03
2019-01-17T19:59:03.355Z,75.71
2019-01-17T20:01:31.096Z,75.86
2019-01-17T20:03:59.092Z,76.14
2019-01-17T20:06:27.137Z,75.99
2019-01-17T20:08:57.436Z,75.83
2019-01-17T20:11:26.598Z,76.00
2019-01-17T20:13:55.079Z,76.10
2019-01-17T20:16:23.238Z,76.08
2019-01-17T20:18:51.779Z,76.18
2019-01-17T20:21:19.644Z,76.03
2019-01-17T20:23:47.695Z,76.00
2019-01-17T20:26:15.767Z,76.18
2019-01-17T20:28:43.643Z,76.67
2019-01-17T20:31:14.521Z,76.73
2019-01-17T20:33:42.817Z,76.70
2019-01-17T20:36:10.778Z,77.38
2019-01-17T20:38:38.855Z,77.80
2019-01-17T20:41:06.971Z,78.32
2019-01-17T20:43:34.831Z,78.24
2019-01-17T20:46:02.672Z,78.18
2019-01-17T20:48:36.450Z,77.94
2019-01-17T20:51:04.167Z,77.97
2019-01-17T20:53:31.950Z,77.94
2019-01-17T20:56:01.604Z,77.89
2019-01-17T20:58:29.500Z,78.47
2019-01-17T21:01:21.687Z,78.86
2019-01-17T21:03:49.434Z,78.58
2019-01-17T21:06:17.245Z,78.35
2019-01-17T21:08:48.909Z,78.59
2019-01-17T21:11:22.794Z,78.45
2019-01-17T21:13:51.113Z,78.26
2019-01-17T21:16:19.416Z,78.47
2019-01-17T21:18:49.338Z,78.73
2019-01-17T21:21:23.577Z,78.50
2019-01-17T21:23:52.870Z,78.92
2019-01-17T21:26:28.540Z,78.66
2019-01-17T21:28:56.228Z,78.61
2019-01-17T21:31:24.164Z,78.40
2019-01-17T21:33:51.872Z,78.74
2019-01-17T21:36:25.630Z,78.99
2019-01-17T21:38:53.397Z,79.36
2019-01-17T21:41:21.662Z,79.55
2019-01-17T21:43:50.021Z,79.42
2019-01-17T21:46:18.861Z,79.49
2019-01-17T21:48:46.571Z,79.41
2019-01-17T21:51:17.533Z,79.27
2019-01-17T21:53:46.514Z,79.88
2019-01-17T21:56:14.177Z,80.08
2019-01-17T21:58:42.061Z,80.22
2019-01-17T22:01:09.833Z,80.19
2019-01-17T22:03:37.507Z,79.76
2019-01-17T22:06:07.872Z,80.06
2019-01-17T22:08:35.860Z,80.80
2019-01-17T22:11:03.595Z,80.05
2019-01-17T22:13:31.249Z,80.75
2019-01-17T22:15:58.996Z,82.78
2019-01-17T22:18:26.594Z,83.14
2019-01-17T22:20:54.347Z,84.06
2019-01-17T22:23:21.924Z,84.18
2019-01-17T22:25:49.599Z,84.78
2019-01-17T22:28:17.150Z,85.67
2019-01-17T22:30:44.848Z,85.89
2019-01-17T22:33:12.422Z,86.58
2019-01-17T22:35:40.212Z,86.53
2019-01-17T22:38:07.959Z,85.93
2019-01-17T22:40:35.642Z,86.81
2019-01-17T22:43:03.973Z,86.93
2019-01-17T22:45:31.756Z,87.13
2019-01-17T22:47:59.474Z,88.13
2019-01-17T22:50:27.274Z,88.27
2019-01-17T22:52:55.076Z,86.06
2019-01-17T22:55:22.804Z,85.77
2019-01-17T22:57:50.583Z,84.52
2019-01-17T23:01:12.136Z,84.26
2019-01-17T23:03:42.185Z,84.76
2019-01-17T23:06:09.833Z,85.18
2019-01-17T23:08:37.546Z,85.97
2019-01-17T23:11:05.292Z,86.31
2019-01-17T23:13:33.136Z,86.32
2019-01-17T23:16:00.857Z,85.70
2019-01-17T23:18:28.480Z,86.17
2019-01-17T23:20:56.151Z,85.97
2019-01-17T23:23:23.726Z,85.83
2019-01-17T23:25:51.378Z,85.79
2019-01-17T23:28:18.952Z,85.93
2019-01-17T23:30:46.622Z,85.42
2019-01-17T23:33:14.183Z,84.18
2019-01-17T23:35:41.867Z,83.84
2019-01-17T23:38:09.440Z,84.25
2019-01-17T23:40:37.070Z,84.29
2019-01-17T23:43:04.716Z,84.66
2019-01-17T23:45:32.471Z,84.88
2019-01-17T23:48:00.130Z,85.35
2019-01-17T23:50:27.756Z,85.31
2019-01-17T23:52:55.376Z,85.42
2019-01-17T23:55:23.062Z,85.89
2019-01-17T23:57:50.958Z,85.99
